sensor_id;sensor_type;location;lat;lon;timestamp;P1;durP1;ratioP1;P2;durP2;ratioP2
12956;SDS011;6543;48.836;10.092;2023-02-28T00:01:03;2.80;;;2.13;;
12956;SDS011;6543;48.836;10.092;2023-02-28T00:03:48;3.80;;;2.43;;
12956;SDS011;6543;48.836;10.092;2023-02-28T00:06:34;4.53;;;2.33;;
12956;SDS011;6543;48.836;10.092;2023-02-28T00:09:16;3.43;;;2.10;;
12956;SDS011;6543;48.836;10.092;2023-02-28T00:12:14;4.73;;;2.17;;
12956;SDS011;6543;48.836;10.092;2023-02-28T00:14:58;4.10;;;2.10;;
12956;SDS011;6543;48.836;10.092;2023-02-28T00:17:41;4.30;;;2.40;;
12956;SDS011;6543;48.836;10.092;2023-02-28T00:20:16;2.50;;;2.03;;
12956;SDS011;6543;48.836;10.092;2023-02-28T00:23:13;4.73;;;2.30;;
12956;SDS011;6543;48.836;10.092;2023-02-28T00:25:41;2.80;;;2.03;;
12956;SDS011;6543;48.836;10.092;2023-02-28T00:28:08;5.87;;;2.30;;
12956;SDS011;6543;48.836;10.092;2023-02-28T00:30:35;3.90;;;2.33;;
12956;SDS011;6543;48.836;10.092;2023-02-28T00:33:02;4.30;;;2.30;;
12956;SDS011;6543;48.836;10.092;2023-02-28T00:35:29;3.13;;;2.27;;
12956;SDS011;6543;48.836;10.092;2023-02-28T00:37:56;5.63;;;2.63;;
12956;SDS011;6543;48.836;10.092;2023-02-28T00:40:24;4.50;;;2.73;;
12956;SDS011;6543;48.836;10.092;2023-02-28T00:42:52;3.37;;;2.83;;
12956;SDS011;6543;48.836;10.092;2023-02-28T00:45:22;3.50;;;2.67;;
12956;SDS011;6543;48.836;10.092;2023-02-28T00:48:00;6.80;;;2.77;;
12956;SDS011;6543;48.836;10.092;2023-02-28T00:50:36;4.70;;;2.47;;
12956;SDS011;6543;48.836;10.092;2023-02-28T00:53:26;3.97;;;2.33;;
12956;SDS011;6543;48.836;10.092;2023-02-28T00:56:29;4.63;;;2.70;;
12956;SDS011;6543;48.836;10.092;2023-02-28T00:59:06;3.67;;;2.67;;
12956;SDS011;6543;48.836;10.092;2023-02-28T01:01:46;3.83;;;2.57;;
12956;SDS011;6543;48.836;10.092;2023-02-28T01:04:35;4.57;;;2.50;;
12956;SDS011;6543;48.836;10.092;2023-02-28T01:07:12;6.70;;;2.83;;
12956;SDS011;6543;48.836;10.092;2023-02-28T01:10:01;3.20;;;2.60;;
12956;SDS011;6543;48.836;10.092;2023-02-28T01:12:47;4.00;;;2.23;;
12956;SDS011;6543;48.836;10.092;2023-02-28T01:15:28;3.23;;;2.17;;
12956;SDS011;6543;48.836;10.092;2023-02-28T01:18:05;6.47;;;2.53;;
12956;SDS011;6543;48.836;10.092;2023-02-28T01:20:46;3.03;;;2.73;;
12956;SDS011;6543;48.836;10.092;2023-02-28T01:23:27;3.63;;;2.90;;
12956;SDS011;6543;48.836;10.092;2023-02-28T01:26:17;3.27;;;2.60;;
12956;SDS011;6543;48.836;10.092;2023-02-28T01:28:52;4.23;;;3.03;;
12956;SDS011;6543;48.836;10.092;2023-02-28T01:31:26;6.57;;;3.30;;
12956;SDS011;6543;48.836;10.092;2023-02-28T01:34:21;4.33;;;2.90;;
12956;SDS011;6543;48.836;10.092;2023-02-28T01:37:16;3.83;;;2.60;;
12956;SDS011;6543;48.836;10.092;2023-02-28T01:40:04;3.93;;;2.80;;
12956;SDS011;6543;48.836;10.092;2023-02-28T01:42:32;3.90;;;2.23;;
12956;SDS011;6543;48.836;10.092;2023-02-28T01:45:01;2.90;;;2.33;;
12956;SDS011;6543;48.836;10.092;2023-02-28T01:47:42;3.77;;;2.73;;
12956;SDS011;6543;48.836;10.092;2023-02-28T01:50:14;3.33;;;2.80;;
12956;SDS011;6543;48.836;10.092;2023-02-28T01:52:44;5.37;;;3.07;;
12956;SDS011;6543;48.836;10.092;2023-02-28T01:55:13;4.20;;;2.93;;
12956;SDS011;6543;48.836;10.092;2023-02-28T01:57:43;4.43;;;3.23;;
12956;SDS011;6543;48.836;10.092;2023-02-28T02:00:13;6.80;;;3.50;;
12956;SDS011;6543;48.836;10.092;2023-02-28T02:02:44;5.00;;;3.07;;
12956;SDS011;6543;48.836;10.092;2023-02-28T02:05:14;4.37;;;2.63;;
12956;SDS011;6543;48.836;10.092;2023-02-28T02:07:43;3.57;;;2.77;;
12956;SDS011;6543;48.836;10.092;2023-02-28T02:10:13;6.03;;;3.00;;
12956;SDS011;6543;48.836;10.092;2023-02-28T02:12:52;4.00;;;3.20;;
12956;SDS011;6543;48.836;10.092;2023-02-28T02:15:34;5.23;;;3.13;;
12956;SDS011;6543;48.836;10.092;2023-02-28T02:18:09;3.60;;;2.70;;
12956;SDS011;6543;48.836;10.092;2023-02-28T02:27:13;3.00;;;2.47;;
12956;SDS011;6543;48.836;10.092;2023-02-28T02:29:54;4.03;;;2.80;;
12956;SDS011;6543;48.836;10.092;2023-02-28T02:33:06;8.83;;;3.27;;
12956;SDS011;6543;48.836;10.092;2023-02-28T02:36:13;6.23;;;2.97;;
12956;SDS011;6543;48.836;10.092;2023-02-28T02:41:59;4.40;;;3.30;;
12956;SDS011;6543;48.836;10.092;2023-02-28T02:44:56;4.53;;;3.20;;
12956;SDS011;6543;48.836;10.092;2023-02-28T02:48:03;4.03;;;2.90;;
12956;SDS011;6543;48.836;10.092;2023-02-28T02:50:52;7.10;;;3.60;;
12956;SDS011;6543;48.836;10.092;2023-02-28T02:53:46;7.27;;;3.43;;
12956;SDS011;6543;48.836;10.092;2023-02-28T02:56:35;4.90;;;2.97;;
12956;SDS011;6543;48.836;10.092;2023-02-28T02:59:24;3.50;;;3.07;;
12956;SDS011;6543;48.836;10.092;2023-02-28T03:02:12;6.10;;;5.03;;
12956;SDS011;6543;48.836;10.092;2023-02-28T03:05:07;6.70;;;3.50;;
12956;SDS011;6543;48.836;10.092;2023-02-28T03:07:50;5.63;;;3.37;;
12956;SDS011;6543;48.836;10.092;2023-02-28T03:19:29;4.27;;;3.30;;
12956;SDS011;6543;48.836;10.092;2023-02-28T03:22:19;6.33;;;3.73;;
12956;SDS011;6543;48.836;10.092;2023-02-28T03:25:07;6.67;;;3.70;;
12956;SDS011;6543;48.836;10.092;2023-02-28T03:28:05;5.23;;;3.60;;
12956;SDS011;6543;48.836;10.092;2023-02-28T03:30:56;11.47;;;3.73;;
12956;SDS011;6543;48.836;10.092;2023-02-28T03:33:30;7.00;;;4.27;;
12956;SDS011;6543;48.836;10.092;2023-02-28T03:36:09;5.97;;;3.97;;
12956;SDS011;6543;48.836;10.092;2023-02-28T03:38:52;8.10;;;3.97;;
12956;SDS011;6543;48.836;10.092;2023-02-28T03:41:44;6.77;;;3.50;;
12956;SDS011;6543;48.836;10.092;2023-02-28T03:44:30;7.67;;;4.20;;
12956;SDS011;6543;48.836;10.092;2023-02-28T03:47:16;7.53;;;4.57;;
12956;SDS011;6543;48.836;10.092;2023-02-28T03:49:53;7.13;;;4.33;;
12956;SDS011;6543;48.836;10.092;2023-02-28T03:52:25;5.80;;;3.40;;
12956;SDS011;6543;48.836;10.092;2023-02-28T03:54:56;6.63;;;3.70;;
12956;SDS011;6543;48.836;10.092;2023-02-28T03:57:30;4.43;;;3.97;;
12956;SDS011;6543;48.836;10.092;2023-02-28T04:00:05;5.30;;;3.67;;
12956;SDS011;6543;48.836;10.092;2023-02-28T04:02:36;7.13;;;4.33;;
12956;SDS011;6543;48.836;10.092;2023-02-28T04:05:03;5.00;;;4.00;;
12956;SDS011;6543;48.836;10.092;2023-02-28T04:07:30;4.63;;;3.53;;
12956;SDS011;6543;48.836;10.092;2023-02-28T04:09:58;7.43;;;4.10;;
12956;SDS011;6543;48.836;10.092;2023-02-28T04:12:25;4.90;;;4.07;;
12956;SDS011;6543;48.836;10.092;2023-02-28T04:14:53;5.47;;;4.80;;
12956;SDS011;6543;48.836;10.092;2023-02-28T04:17:22;6.57;;;4.03;;
12956;SDS011;6543;48.836;10.092;2023-02-28T04:19:50;7.03;;;4.57;;
12956;SDS011;6543;48.836;10.092;2023-02-28T04:22:19;6.90;;;4.70;;
12956;SDS011;6543;48.836;10.092;2023-02-28T04:24:46;5.90;;;4.43;;
12956;SDS011;6543;48.836;10.092;2023-02-28T04:27:15;5.27;;;4.47;;
12956;SDS011;6543;48.836;10.092;2023-02-28T04:30:19;5.40;;;4.30;;
12956;SDS011;6543;48.836;10.092;2023-02-28T04:33:17;6.23;;;4.60;;
12956;SDS011;6543;48.836;10.092;2023-02-28T04:35:59;5.57;;;3.80;;
12956;SDS011;6543;48.836;10.092;2023-02-28T04:38:38;7.77;;;5.23;;
12956;SDS011;6543;48.836;10.092;2023-02-28T04:41:17;6.70;;;5.20;;
12956;SDS011;6543;48.836;10.092;2023-02-28T04:44:01;5.40;;;4.40;;
12956;SDS011;6543;48.836;10.092;2023-02-28T04:52:44;6.13;;;4.30;;
12956;SDS011;6543;48.836;10.092;2023-02-28T04:55:33;6.33;;;4.87;;
12956;SDS011;6543;48.836;10.092;2023-02-28T04:58:39;7.20;;;4.37;;
12956;SDS011;6543;48.836;10.092;2023-02-28T05:01:59;6.17;;;4.40;;
12956;SDS011;6543;48.836;10.092;2023-02-28T05:08:02;6.60;;;5.03;;
12956;SDS011;6543;48.836;10.092;2023-02-28T05:10:39;7.63;;;5.40;;
12956;SDS011;6543;48.836;10.092;2023-02-28T05:13:25;8.53;;;4.93;;
12956;SDS011;6543;48.836;10.092;2023-02-28T05:16:19;6.87;;;5.37;;
12956;SDS011;6543;48.836;10.092;2023-02-28T05:19:14;6.20;;;4.50;;
12956;SDS011;6543;48.836;10.092;2023-02-28T05:22:11;6.50;;;5.50;;
12956;SDS011;6543;48.836;10.092;2023-02-28T05:25:04;8.57;;;6.50;;
12956;SDS011;6543;48.836;10.092;2023-02-28T05:27:44;7.07;;;4.97;;
12956;SDS011;6543;48.836;10.092;2023-02-28T05:30:22;8.87;;;4.93;;
12956;SDS011;6543;48.836;10.092;2023-02-28T05:33:10;7.53;;;5.67;;
12956;SDS011;6543;48.836;10.092;2023-02-28T05:36:06;6.90;;;5.20;;
12956;SDS011;6543;48.836;10.092;2023-02-28T05:39:01;7.90;;;5.57;;
12956;SDS011;6543;48.836;10.092;2023-02-28T05:42:07;8.17;;;4.63;;
12956;SDS011;6543;48.836;10.092;2023-02-28T05:44:48;10.17;;;6.37;;
12956;SDS011;6543;48.836;10.092;2023-02-28T05:50:50;9.70;;;6.27;;
12956;SDS011;6543;48.836;10.092;2023-02-28T05:53:45;10.83;;;5.87;;
12956;SDS011;6543;48.836;10.092;2023-02-28T05:56:29;9.03;;;6.40;;
12956;SDS011;6543;48.836;10.092;2023-02-28T06:02:38;7.23;;;5.53;;
12956;SDS011;6543;48.836;10.092;2023-02-28T06:05:25;8.60;;;6.27;;
12956;SDS011;6543;48.836;10.092;2023-02-28T06:08:15;9.37;;;6.00;;
12956;SDS011;6543;48.836;10.092;2023-02-28T06:11:09;11.87;;;6.17;;
12956;SDS011;6543;48.836;10.092;2023-02-28T06:14:06;7.53;;;6.53;;
12956;SDS011;6543;48.836;10.092;2023-02-28T06:16:58;8.93;;;6.67;;
12956;SDS011;6543;48.836;10.092;2023-02-28T06:23:19;8.87;;;5.30;;
12956;SDS011;6543;48.836;10.092;2023-02-28T06:26:08;8.60;;;5.87;;
12956;SDS011;6543;48.836;10.092;2023-02-28T06:29:02;10.93;;;6.37;;
12956;SDS011;6543;48.836;10.092;2023-02-28T06:35:33;7.77;;;6.77;;
12956;SDS011;6543;48.836;10.092;2023-02-28T06:41:28;11.93;;;6.77;;
12956;SDS011;6543;48.836;10.092;2023-02-28T06:44:45;9.37;;;6.60;;
12956;SDS011;6543;48.836;10.092;2023-02-28T06:47:52;18.43;;;7.10;;
12956;SDS011;6543;48.836;10.092;2023-02-28T06:51:14;7.60;;;6.07;;
12956;SDS011;6543;48.836;10.092;2023-02-28T06:57:05;10.30;;;7.00;;
12956;SDS011;6543;48.836;10.092;2023-02-28T07:00:07;10.33;;;6.90;;
12956;SDS011;6543;48.836;10.092;2023-02-28T07:03:01;11.50;;;6.60;;
12956;SDS011;6543;48.836;10.092;2023-02-28T07:05:50;10.93;;;7.07;;
12956;SDS011;6543;48.836;10.092;2023-02-28T07:08:41;8.03;;;6.83;;
12956;SDS011;6543;48.836;10.092;2023-02-28T07:14:50;12.53;;;6.50;;
12956;SDS011;6543;48.836;10.092;2023-02-28T07:20:44;10.63;;;7.07;;
12956;SDS011;6543;48.836;10.092;2023-02-28T07:23:45;12.73;;;6.07;;
12956;SDS011;6543;48.836;10.092;2023-02-28T07:49:48;7.33;;;6.57;;
12956;SDS011;6543;48.836;10.092;2023-02-28T07:52:39;10.17;;;7.27;;
12956;SDS011;6543;48.836;10.092;2023-02-28T07:55:56;10.73;;;7.67;;
12956;SDS011;6543;48.836;10.092;2023-02-28T07:59:11;7.53;;;6.43;;
12956;SDS011;6543;48.836;10.092;2023-02-28T08:08:59;8.10;;;6.23;;
12956;SDS011;6543;48.836;10.092;2023-02-28T08:37:09;9.70;;;7.43;;
12956;SDS011;6543;48.836;10.092;2023-02-28T08:40:49;10.23;;;7.07;;
12956;SDS011;6543;48.836;10.092;2023-02-28T08:46:59;9.10;;;6.77;;
12956;SDS011;6543;48.836;10.092;2023-02-28T08:50:14;11.40;;;6.63;;
12956;SDS011;6543;48.836;10.092;2023-02-28T08:56:19;10.73;;;6.73;;
12956;SDS011;6543;48.836;10.092;2023-02-28T08:59:30;9.00;;;6.90;;
12956;SDS011;6543;48.836;10.092;2023-02-28T09:08:49;8.90;;;6.53;;
12956;SDS011;6543;48.836;10.092;2023-02-28T09:11:35;8.83;;;7.13;;
12956;SDS011;6543;48.836;10.092;2023-02-28T09:15:51;13.63;;;7.30;;
12956;SDS011;6543;48.836;10.092;2023-02-28T09:17:40;9.47;;;6.90;;
12956;SDS011;6543;48.836;10.092;2023-02-28T09:24:20;10.57;;;7.13;;
12956;SDS011;6543;48.836;10.092;2023-02-28T09:27:24;11.13;;;7.20;;
12956;SDS011;6543;48.836;10.092;2023-02-28T09:30:33;10.73;;;6.40;;
12956;SDS011;6543;48.836;10.092;2023-02-28T09:32:59;11.20;;;7.30;;
12956;SDS011;6543;48.836;10.092;2023-02-28T09:35:57;9.07;;;6.50;;
12956;SDS011;6543;48.836;10.092;2023-02-28T09:38:32;10.37;;;6.57;;
12956;SDS011;6543;48.836;10.092;2023-02-28T09:41:12;9.53;;;6.93;;
12956;SDS011;6543;48.836;10.092;2023-02-28T09:43:53;12.70;;;7.40;;
12956;SDS011;6543;48.836;10.092;2023-02-28T09:47:08;9.87;;;7.03;;
12956;SDS011;6543;48.836;10.092;2023-02-28T09:49:51;9.27;;;6.93;;
12956;SDS011;6543;48.836;10.092;2023-02-28T09:52:20;11.03;;;6.70;;
12956;SDS011;6543;48.836;10.092;2023-02-28T09:54:59;8.43;;;6.33;;
12956;SDS011;6543;48.836;10.092;2023-02-28T09:57:40;11.43;;;6.50;;
12956;SDS011;6543;48.836;10.092;2023-02-28T10:00:18;11.97;;;7.20;;
12956;SDS011;6543;48.836;10.092;2023-02-28T10:03:15;9.70;;;6.90;;
12956;SDS011;6543;48.836;10.092;2023-02-28T10:06:13;10.77;;;7.40;;
12956;SDS011;6543;48.836;10.092;2023-02-28T10:09:08;11.37;;;7.47;;
12956;SDS011;6543;48.836;10.092;2023-02-28T10:11:40;9.37;;;6.90;;
12956;SDS011;6543;48.836;10.092;2023-02-28T10:14:19;13.27;;;7.07;;
12956;SDS011;6543;48.836;10.092;2023-02-28T10:17:01;8.17;;;6.60;;
12956;SDS011;6543;48.836;10.092;2023-02-28T10:19:44;8.90;;;6.93;;
12956;SDS011;6543;48.836;10.092;2023-02-28T10:22:23;14.77;;;7.13;;
12956;SDS011;6543;48.836;10.092;2023-02-28T10:25:05;12.63;;;6.93;;
12956;SDS011;6543;48.836;10.092;2023-02-28T10:27:46;10.83;;;6.37;;
12956;SDS011;6543;48.836;10.092;2023-02-28T10:30:15;12.33;;;6.47;;
12956;SDS011;6543;48.836;10.092;2023-02-28T10:33:19;11.60;;;7.10;;
12956;SDS011;6543;48.836;10.092;2023-02-28T10:36:43;12.63;;;7.03;;
12956;SDS011;6543;48.836;10.092;2023-02-28T10:39:00;9.80;;;6.87;;
12956;SDS011;6543;48.836;10.092;2023-02-28T10:41:57;11.10;;;6.00;;
12956;SDS011;6543;48.836;10.092;2023-02-28T10:44:45;10.73;;;6.13;;
12956;SDS011;6543;48.836;10.092;2023-02-28T10:50:36;8.83;;;6.00;;
12956;SDS011;6543;48.836;10.092;2023-02-28T10:53:45;8.60;;;5.90;;
12956;SDS011;6543;48.836;10.092;2023-02-28T10:56:33;8.60;;;6.77;;
12956;SDS011;6543;48.836;10.092;2023-02-28T11:02:07;8.37;;;6.43;;
12956;SDS011;6543;48.836;10.092;2023-02-28T11:05:36;8.70;;;6.30;;
12956;SDS011;6543;48.836;10.092;2023-02-28T11:08:44;8.33;;;6.13;;
12956;SDS011;6543;48.836;10.092;2023-02-28T11:11:41;8.70;;;5.93;;
12956;SDS011;6543;48.836;10.092;2023-02-28T11:14:32;7.17;;;5.33;;
12956;SDS011;6543;48.836;10.092;2023-02-28T11:17:59;11.00;;;6.17;;
12956;SDS011;6543;48.836;10.092;2023-02-28T11:24:37;6.50;;;5.10;;
12956;SDS011;6543;48.836;10.092;2023-02-28T11:31:23;9.17;;;6.13;;
12956;SDS011;6543;48.836;10.092;2023-02-28T11:34:59;8.97;;;6.70;;
12956;SDS011;6543;48.836;10.092;2023-02-28T11:37:54;9.83;;;5.93;;
12956;SDS011;6543;48.836;10.092;2023-02-28T11:40:46;8.90;;;6.80;;
12956;SDS011;6543;48.836;10.092;2023-02-28T11:44:28;8.90;;;6.00;;
12956;SDS011;6543;48.836;10.092;2023-02-28T11:47:27;9.43;;;6.33;;
12956;SDS011;6543;48.836;10.092;2023-02-28T11:50:45;11.60;;;6.07;;
12956;SDS011;6543;48.836;10.092;2023-02-28T11:54:15;8.60;;;6.50;;
12956;SDS011;6543;48.836;10.092;2023-02-28T12:01:01;8.80;;;5.67;;
12956;SDS011;6543;48.836;10.092;2023-02-28T12:19:28;10.50;;;6.33;;
12956;SDS011;6543;48.836;10.092;2023-02-28T12:22:22;16.53;;;8.23;;
12956;SDS011;6543;48.836;10.092;2023-02-28T12:28:06;10.63;;;6.27;;
12956;SDS011;6543;48.836;10.092;2023-02-28T12:30:37;7.40;;;5.90;;
12956;SDS011;6543;48.836;10.092;2023-02-28T12:33:11;14.80;;;7.03;;
12956;SDS011;6543;48.836;10.092;2023-02-28T12:35:42;12.40;;;7.70;;
12956;SDS011;6543;48.836;10.092;2023-02-28T12:38:14;10.17;;;7.47;;
12956;SDS011;6543;48.836;10.092;2023-02-28T12:40:47;11.53;;;6.77;;
12956;SDS011;6543;48.836;10.092;2023-02-28T12:43:17;9.83;;;6.80;;
12956;SDS011;6543;48.836;10.092;2023-02-28T12:45:48;13.43;;;7.03;;
12956;SDS011;6543;48.836;10.092;2023-02-28T12:48:20;12.13;;;6.30;;
12956;SDS011;6543;48.836;10.092;2023-02-28T12:50:52;10.07;;;6.47;;
12956;SDS011;6543;48.836;10.092;2023-02-28T12:53:21;7.60;;;5.43;;
12956;SDS011;6543;48.836;10.092;2023-02-28T12:55:56;10.07;;;6.97;;
12956;SDS011;6543;48.836;10.092;2023-02-28T12:58:35;9.83;;;5.97;;
12956;SDS011;6543;48.836;10.092;2023-02-28T13:04:07;9.00;;;6.03;;
12956;SDS011;6543;48.836;10.092;2023-02-28T13:06:55;7.20;;;6.07;;
12956;SDS011;6543;48.836;10.092;2023-02-28T13:09:32;10.40;;;7.33;;
12956;SDS011;6543;48.836;10.092;2023-02-28T13:11:59;9.40;;;6.90;;
12956;SDS011;6543;48.836;10.092;2023-02-28T13:14:28;14.00;;;7.13;;
12956;SDS011;6543;48.836;10.092;2023-02-28T13:17:01;8.90;;;6.53;;
12956;SDS011;6543;48.836;10.092;2023-02-28T13:19:37;10.30;;;7.50;;
12956;SDS011;6543;48.836;10.092;2023-02-28T13:22:15;9.40;;;7.63;;
12956;SDS011;6543;48.836;10.092;2023-02-28T13:24:45;10.43;;;7.27;;
12956;SDS011;6543;48.836;10.092;2023-02-28T13:27:21;10.60;;;7.67;;
12956;SDS011;6543;48.836;10.092;2023-02-28T13:29:57;12.57;;;7.70;;
12956;SDS011;6543;48.836;10.092;2023-02-28T13:32:29;10.00;;;7.17;;
12956;SDS011;6543;48.836;10.092;2023-02-28T13:44:14;12.43;;;7.90;;
12956;SDS011;6543;48.836;10.092;2023-02-28T13:49:47;11.37;;;7.83;;
12956;SDS011;6543;48.836;10.092;2023-02-28T13:52:17;10.80;;;7.37;;
12956;SDS011;6543;48.836;10.092;2023-02-28T13:57:56;9.60;;;6.17;;
12956;SDS011;6543;48.836;10.092;2023-02-28T14:00:37;15.82;;;9.50;;
12956;SDS011;6543;48.836;10.092;2023-02-28T14:03:35;12.70;;;8.40;;
12956;SDS011;6543;48.836;10.092;2023-02-28T14:06:22;15.90;;;7.80;;
12956;SDS011;6543;48.836;10.092;2023-02-28T14:08:55;11.97;;;7.90;;
12956;SDS011;6543;48.836;10.092;2023-02-28T14:11:27;11.53;;;7.60;;
12956;SDS011;6543;48.836;10.092;2023-02-28T14:13:57;15.67;;;7.70;;
12956;SDS011;6543;48.836;10.092;2023-02-28T14:16:26;10.77;;;8.07;;
12956;SDS011;6543;48.836;10.092;2023-02-28T14:18:56;12.32;;;8.13;;
12956;SDS011;6543;48.836;10.092;2023-02-28T14:21:27;13.27;;;7.90;;
12956;SDS011;6543;48.836;10.092;2023-02-28T14:24:01;10.43;;;7.23;;
12956;SDS011;6543;48.836;10.092;2023-02-28T14:26:52;14.57;;;8.27;;
12956;SDS011;6543;48.836;10.092;2023-02-28T14:29:50;10.37;;;7.90;;
12956;SDS011;6543;48.836;10.092;2023-02-28T14:32:41;12.33;;;7.93;;
12956;SDS011;6543;48.836;10.092;2023-02-28T14:35:18;11.67;;;8.57;;
12956;SDS011;6543;48.836;10.092;2023-02-28T14:37:53;10.07;;;6.60;;
12956;SDS011;6543;48.836;10.092;2023-02-28T14:40:22;11.27;;;8.43;;
12956;SDS011;6543;48.836;10.092;2023-02-28T14:42:55;11.97;;;8.30;;
12956;SDS011;6543;48.836;10.092;2023-02-28T14:45:24;11.87;;;7.47;;
12956;SDS011;6543;48.836;10.092;2023-02-28T14:47:55;10.77;;;7.60;;
12956;SDS011;6543;48.836;10.092;2023-02-28T14:50:25;16.00;;;7.97;;
12956;SDS011;6543;48.836;10.092;2023-02-28T14:53:01;9.03;;;7.33;;
12956;SDS011;6543;48.836;10.092;2023-02-28T14:55:30;11.53;;;8.10;;
12956;SDS011;6543;48.836;10.092;2023-02-28T14:58:00;13.60;;;7.70;;
12956;SDS011;6543;48.836;10.092;2023-02-28T15:00:31;14.57;;;8.20;;
12956;SDS011;6543;48.836;10.092;2023-02-28T15:03:00;10.53;;;8.23;;
12956;SDS011;6543;48.836;10.092;2023-02-28T15:05:47;13.87;;;7.87;;
12956;SDS011;6543;48.836;10.092;2023-02-28T15:08:18;20.00;;;7.97;;
12956;SDS011;6543;48.836;10.092;2023-02-28T15:10:50;10.73;;;6.97;;
12956;SDS011;6543;48.836;10.092;2023-02-28T15:13:19;13.47;;;8.73;;
12956;SDS011;6543;48.836;10.092;2023-02-28T15:15:50;28.57;;;8.87;;
12956;SDS011;6543;48.836;10.092;2023-02-28T15:18:28;13.20;;;8.07;;
12956;SDS011;6543;48.836;10.092;2023-02-28T15:21:00;15.33;;;7.03;;
12956;SDS011;6543;48.836;10.092;2023-02-28T15:23:30;18.17;;;8.90;;
12956;SDS011;6543;48.836;10.092;2023-02-28T15:25:59;15.47;;;8.83;;
12956;SDS011;6543;48.836;10.092;2023-02-28T15:28:27;16.67;;;8.77;;
12956;SDS011;6543;48.836;10.092;2023-02-28T15:30:57;11.20;;;8.30;;
12956;SDS011;6543;48.836;10.092;2023-02-28T15:33:26;11.90;;;8.17;;
12956;SDS011;6543;48.836;10.092;2023-02-28T15:36:10;16.17;;;8.90;;
12956;SDS011;6543;48.836;10.092;2023-02-28T15:38:39;11.33;;;8.20;;
12956;SDS011;6543;48.836;10.092;2023-02-28T15:41:20;12.03;;;8.17;;
12956;SDS011;6543;48.836;10.092;2023-02-28T15:43:57;13.30;;;8.40;;
12956;SDS011;6543;48.836;10.092;2023-02-28T15:46:53;11.53;;;7.87;;
12956;SDS011;6543;48.836;10.092;2023-02-28T15:49:23;12.63;;;8.60;;
12956;SDS011;6543;48.836;10.092;2023-02-28T15:51:51;12.77;;;8.93;;
12956;SDS011;6543;48.836;10.092;2023-02-28T15:54:21;9.80;;;8.07;;
12956;SDS011;6543;48.836;10.092;2023-02-28T15:56:51;13.60;;;9.10;;
12956;SDS011;6543;48.836;10.092;2023-02-28T15:59:21;12.80;;;8.23;;
12956;SDS011;6543;48.836;10.092;2023-02-28T16:02:11;13.97;;;9.07;;
12956;SDS011;6543;48.836;10.092;2023-02-28T16:04:55;12.40;;;9.10;;
12956;SDS011;6543;48.836;10.092;2023-02-28T16:07:26;12.37;;;8.80;;
12956;SDS011;6543;48.836;10.092;2023-02-28T16:09:53;10.87;;;8.57;;
12956;SDS011;6543;48.836;10.092;2023-02-28T16:12:21;12.57;;;7.77;;
12956;SDS011;6543;48.836;10.092;2023-02-28T16:14:53;12.27;;;9.00;;
12956;SDS011;6543;48.836;10.092;2023-02-28T16:17:24;12.37;;;8.00;;
12956;SDS011;6543;48.836;10.092;2023-02-28T16:19:52;15.47;;;8.83;;
12956;SDS011;6543;48.836;10.092;2023-02-28T16:22:20;11.97;;;9.07;;
12956;SDS011;6543;48.836;10.092;2023-02-28T16:24:47;12.23;;;8.87;;
12956;SDS011;6543;48.836;10.092;2023-02-28T16:27:16;11.27;;;8.57;;
12956;SDS011;6543;48.836;10.092;2023-02-28T16:29:46;12.13;;;8.53;;
12956;SDS011;6543;48.836;10.092;2023-02-28T16:32:14;12.67;;;8.93;;
12956;SDS011;6543;48.836;10.092;2023-02-28T16:34:43;11.67;;;8.90;;
12956;SDS011;6543;48.836;10.092;2023-02-28T16:37:14;12.37;;;8.63;;
12956;SDS011;6543;48.836;10.092;2023-02-28T16:39:43;15.87;;;8.70;;
12956;SDS011;6543;48.836;10.092;2023-02-28T16:42:11;12.93;;;8.80;;
12956;SDS011;6543;48.836;10.092;2023-02-28T16:44:42;11.67;;;9.03;;
12956;SDS011;6543;48.836;10.092;2023-02-28T16:47:10;13.87;;;9.17;;
12956;SDS011;6543;48.836;10.092;2023-02-28T16:49:37;15.80;;;8.43;;
12956;SDS011;6543;48.836;10.092;2023-02-28T16:52:07;11.77;;;8.97;;
12956;SDS011;6543;48.836;10.092;2023-02-28T16:54:34;14.40;;;9.57;;
12956;SDS011;6543;48.836;10.092;2023-02-28T16:57:01;16.53;;;10.07;;
12956;SDS011;6543;48.836;10.092;2023-02-28T16:59:28;13.77;;;9.93;;
12956;SDS011;6543;48.836;10.092;2023-02-28T17:01:55;16.87;;;9.90;;
12956;SDS011;6543;48.836;10.092;2023-02-28T17:04:23;12.63;;;10.00;;
12956;SDS011;6543;48.836;10.092;2023-02-28T17:06:53;16.87;;;9.20;;
12956;SDS011;6543;48.836;10.092;2023-02-28T17:09:27;14.63;;;9.47;;
12956;SDS011;6543;48.836;10.092;2023-02-28T17:11:54;14.13;;;9.10;;
12956;SDS011;6543;48.836;10.092;2023-02-28T17:14:21;15.20;;;9.87;;
12956;SDS011;6543;48.836;10.092;2023-02-28T17:16:48;15.33;;;8.97;;
12956;SDS011;6543;48.836;10.092;2023-02-28T17:19:16;13.67;;;9.43;;
12956;SDS011;6543;48.836;10.092;2023-02-28T17:21:43;14.80;;;9.40;;
12956;SDS011;6543;48.836;10.092;2023-02-28T17:24:11;14.93;;;10.00;;
12956;SDS011;6543;48.836;10.092;2023-02-28T17:26:40;15.17;;;9.77;;
12956;SDS011;6543;48.836;10.092;2023-02-28T17:29:11;15.67;;;9.50;;
12956;SDS011;6543;48.836;10.092;2023-02-28T17:31:41;22.17;;;9.47;;
12956;SDS011;6543;48.836;10.092;2023-02-28T17:34:08;14.73;;;10.07;;
12956;SDS011;6543;48.836;10.092;2023-02-28T17:36:35;13.50;;;9.23;;
12956;SDS011;6543;48.836;10.092;2023-02-28T17:39:03;14.57;;;10.03;;
12956;SDS011;6543;48.836;10.092;2023-02-28T17:41:35;15.70;;;10.27;;
12956;SDS011;6543;48.836;10.092;2023-02-28T17:44:05;13.60;;;9.60;;
12956;SDS011;6543;48.836;10.092;2023-02-28T17:46:32;14.83;;;9.70;;
12956;SDS011;6543;48.836;10.092;2023-02-28T17:48:59;21.43;;;10.27;;
12956;SDS011;6543;48.836;10.092;2023-02-28T17:51:30;14.97;;;10.13;;
12956;SDS011;6543;48.836;10.092;2023-02-28T17:54:00;13.97;;;9.73;;
12956;SDS011;6543;48.836;10.092;2023-02-28T17:56:26;17.03;;;9.77;;
12956;SDS011;6543;48.836;10.092;2023-02-28T17:58:54;19.07;;;9.90;;
12956;SDS011;6543;48.836;10.092;2023-02-28T18:01:24;12.57;;;9.23;;
12956;SDS011;6543;48.836;10.092;2023-02-28T18:04:05;14.43;;;9.87;;
12956;SDS011;6543;48.836;10.092;2023-02-28T18:06:35;19.63;;;9.97;;
12956;SDS011;6543;48.836;10.092;2023-02-28T18:09:12;14.03;;;10.23;;
12956;SDS011;6543;48.836;10.092;2023-02-28T18:11:40;14.93;;;10.03;;
12956;SDS011;6543;48.836;10.092;2023-02-28T18:14:09;15.77;;;9.80;;
12956;SDS011;6543;48.836;10.092;2023-02-28T18:16:41;15.97;;;9.60;;
12956;SDS011;6543;48.836;10.092;2023-02-28T18:19:12;17.20;;;9.90;;
12956;SDS011;6543;48.836;10.092;2023-02-28T18:21:41;15.53;;;10.47;;
12956;SDS011;6543;48.836;10.092;2023-02-28T18:24:09;16.30;;;11.52;;
12956;SDS011;6543;48.836;10.092;2023-02-28T18:26:36;15.87;;;10.63;;
12956;SDS011;6543;48.836;10.092;2023-02-28T18:29:03;21.00;;;11.10;;
12956;SDS011;6543;48.836;10.092;2023-02-28T18:31:31;15.63;;;10.37;;
12956;SDS011;6543;48.836;10.092;2023-02-28T18:34:00;13.60;;;9.73;;
12956;SDS011;6543;48.836;10.092;2023-02-28T18:36:27;19.23;;;11.03;;
12956;SDS011;6543;48.836;10.092;2023-02-28T18:38:54;14.60;;;9.93;;
12956;SDS011;6543;48.836;10.092;2023-02-28T18:41:21;15.37;;;10.23;;
12956;SDS011;6543;48.836;10.092;2023-02-28T18:43:48;14.67;;;10.17;;
12956;SDS011;6543;48.836;10.092;2023-02-28T18:46:16;15.77;;;11.23;;
12956;SDS011;6543;48.836;10.092;2023-02-28T18:48:44;17.73;;;10.53;;
12956;SDS011;6543;48.836;10.092;2023-02-28T18:51:13;14.37;;;9.67;;
12956;SDS011;6543;48.836;10.092;2023-02-28T18:53:41;16.47;;;10.10;;
12956;SDS011;6543;48.836;10.092;2023-02-28T18:56:09;12.90;;;10.23;;
12956;SDS011;6543;48.836;10.092;2023-02-28T18:58:38;16.97;;;10.20;;
12956;SDS011;6543;48.836;10.092;2023-02-28T19:01:13;15.17;;;10.33;;
12956;SDS011;6543;48.836;10.092;2023-02-28T19:03:41;13.93;;;9.70;;